sensor_id;sensor_type;location;lat;lon;timestamp;temperature;humidity
24638;DHT22;12773;50.162;8.548;2023-04-25T00:02:35;10.80;99.90
24638;DHT22;12773;50.162;8.548;2023-04-25T00:05:23;10.80;99.90
24638;DHT22;12773;50.162;8.548;2023-04-25T00:08:11;10.70;99.90
24638;DHT22;12773;50.162;8.548;2023-04-25T00:11:00;10.60;99.90
24638;DHT22;12773;50.162;8.548;2023-04-25T00:13:48;10.60;99.90
24638;DHT22;12773;50.162;8.548;2023-04-25T00:16:37;10.50;99.90
24638;DHT22;12773;50.162;8.548;2023-04-25T00:19:25;10.50;99.90
24638;DHT22;12773;50.162;8.548;2023-04-25T00:22:14;10.60;99.90
24638;DHT22;12773;50.162;8.548;2023-04-25T00:25:02;10.70;99.90
24638;DHT22;12773;50.162;8.548;2023-04-25T00:27:49;10.60;99.90
24638;DHT22;12773;50.162;8.548;2023-04-25T00:30:36;10.70;99.90
24638;DHT22;12773;50.162;8.548;2023-04-25T00:33:24;10.70;99.90
24638;DHT22;12773;50.162;8.548;2023-04-25T00:36:11;10.70;99.90
24638;DHT22;12773;50.162;8.548;2023-04-25T00:38:58;10.60;99.90
24638;DHT22;12773;50.162;8.548;2023-04-25T00:41:46;10.60;99.90
24638;DHT22;12773;50.162;8.548;2023-04-25T00:44:34;10.50;99.90
24638;DHT22;12773;50.162;8.548;2023-04-25T00:47:22;10.50;99.90
24638;DHT22;12773;50.162;8.548;2023-04-25T00:50:11;10.50;99.90
24638;DHT22;12773;50.162;8.548;2023-04-25T00:52:59;10.60;99.90
24638;DHT22;12773;50.162;8.548;2023-04-25T00:55:47;10.50;99.90
24638;DHT22;12773;50.162;8.548;2023-04-25T00:58:36;10.50;99.90
24638;DHT22;12773;50.162;8.548;2023-04-25T01:01:24;10.50;99.90
24638;DHT22;12773;50.162;8.548;2023-04-25T01:04:13;10.60;99.90
24638;DHT22;12773;50.162;8.548;2023-04-25T01:07:01;10.60;99.90
24638;DHT22;12773;50.162;8.548;2023-04-25T01:09:49;10.60;99.90
24638;DHT22;12773;50.162;8.548;2023-04-25T01:12:37;10.60;99.90
24638;DHT22;12773;50.162;8.548;2023-04-25T01:15:24;10.60;99.90
24638;DHT22;12773;50.162;8.548;2023-04-25T01:18:12;10.80;99.90
24638;DHT22;12773;50.162;8.548;2023-04-25T01:21:09;10.90;99.90
24638;DHT22;12773;50.162;8.548;2023-04-25T01:23:58;11.00;99.90
24638;DHT22;12773;50.162;8.548;2023-04-25T01:26:46;11.00;99.90
24638;DHT22;12773;50.162;8.548;2023-04-25T01:29:35;11.00;99.90
24638;DHT22;12773;50.162;8.548;2023-04-25T01:32:23;11.00;99.90
24638;DHT22;12773;50.162;8.548;2023-04-25T01:35:11;11.10;99.90
24638;DHT22;12773;50.162;8.548;2023-04-25T01:37:59;11.00;99.90
24638;DHT22;12773;50.162;8.548;2023-04-25T01:40:46;11.00;99.90
24638;DHT22;12773;50.162;8.548;2023-04-25T01:43:37;10.90;99.90
24638;DHT22;12773;50.162;8.548;2023-04-25T01:46:25;10.80;99.90
24638;DHT22;12773;50.162;8.548;2023-04-25T01:49:12;10.70;99.90
24638;DHT22;12773;50.162;8.548;2023-04-25T01:51:59;10.60;99.90
24638;DHT22;12773;50.162;8.548;2023-04-25T01:54:47;10.40;99.90
24638;DHT22;12773;50.162;8.548;2023-04-25T01:57:34;10.40;99.90
24638;DHT22;12773;50.162;8.548;2023-04-25T02:00:22;10.30;99.90
24638;DHT22;12773;50.162;8.548;2023-04-25T02:03:09;10.20;99.90
24638;DHT22;12773;50.162;8.548;2023-04-25T02:05:57;10.20;99.90
24638;DHT22;12773;50.162;8.548;2023-04-25T02:08:44;10.20;99.90
24638;DHT22;12773;50.162;8.548;2023-04-25T02:11:31;10.20;99.90
24638;DHT22;12773;50.162;8.548;2023-04-25T02:14:18;10.10;99.90
24638;DHT22;12773;50.162;8.548;2023-04-25T02:17:06;10.10;99.90
24638;DHT22;12773;50.162;8.548;2023-04-25T02:19:53;10.10;99.90
24638;DHT22;12773;50.162;8.548;2023-04-25T02:22:41;10.10;99.90
24638;DHT22;12773;50.162;8.548;2023-04-25T02:25:28;10.10;99.90
24638;DHT22;12773;50.162;8.548;2023-04-25T02:28:16;10.00;99.90
24638;DHT22;12773;50.162;8.548;2023-04-25T02:31:03;9.90;99.90
24638;DHT22;12773;50.162;8.548;2023-04-25T02:33:51;9.90;99.90
24638;DHT22;12773;50.162;8.548;2023-04-25T02:36:38;10.00;99.90
24638;DHT22;12773;50.162;8.548;2023-04-25T02:39:26;9.90;99.90
24638;DHT22;12773;50.162;8.548;2023-04-25T02:42:13;9.90;99.90
24638;DHT22;12773;50.162;8.548;2023-04-25T02:45:01;9.90;99.90
24638;DHT22;12773;50.162;8.548;2023-04-25T02:47:48;9.90;99.90
24638;DHT22;12773;50.162;8.548;2023-04-25T02:50:36;9.90;99.90
24638;DHT22;12773;50.162;8.548;2023-04-25T02:53:23;9.90;99.90
24638;DHT22;12773;50.162;8.548;2023-04-25T02:56:11;9.90;99.90
24638;DHT22;12773;50.162;8.548;2023-04-25T02:58:58;9.80;99.90
24638;DHT22;12773;50.162;8.548;2023-04-25T03:01:46;9.80;99.90
24638;DHT22;12773;50.162;8.548;2023-04-25T03:04:33;9.80;99.90
24638;DHT22;12773;50.162;8.548;2023-04-25T03:07:20;9.70;99.90
24638;DHT22;12773;50.162;8.548;2023-04-25T03:10:08;9.80;99.90
24638;DHT22;12773;50.162;8.548;2023-04-25T03:12:55;10.00;99.90
24638;DHT22;12773;50.162;8.548;2023-04-25T03:15:43;10.10;99.90
24638;DHT22;12773;50.162;8.548;2023-04-25T03:18:30;10.10;99.90
24638;DHT22;12773;50.162;8.548;2023-04-25T03:21:18;10.10;99.90
24638;DHT22;12773;50.162;8.548;2023-04-25T03:24:05;10.10;99.90
24638;DHT22;12773;50.162;8.548;2023-04-25T03:26:53;10.00;99.90
24638;DHT22;12773;50.162;8.548;2023-04-25T03:29:44;10.00;99.90
24638;DHT22;12773;50.162;8.548;2023-04-25T03:32:29;9.90;99.90
24638;DHT22;12773;50.162;8.548;2023-04-25T03:35:17;9.90;99.90
24638;DHT22;12773;50.162;8.548;2023-04-25T03:38:04;10.00;99.90
24638;DHT22;12773;50.162;8.548;2023-04-25T03:40:52;9.90;99.90
24638;DHT22;12773;50.162;8.548;2023-04-25T03:43:39;9.70;99.90
24638;DHT22;12773;50.162;8.548;2023-04-25T03:46:26;9.60;99.90
24638;DHT22;12773;50.162;8.548;2023-04-25T03:49:14;9.60;99.90
24638;DHT22;12773;50.162;8.548;2023-04-25T03:52:03;9.60;99.90
24638;DHT22;12773;50.162;8.548;2023-04-25T03:54:50;9.60;99.90
24638;DHT22;12773;50.162;8.548;2023-04-25T03:57:38;9.60;99.90
24638;DHT22;12773;50.162;8.548;2023-04-25T04:00:26;9.60;99.90
24638;DHT22;12773;50.162;8.548;2023-04-25T04:03:13;9.70;99.90
24638;DHT22;12773;50.162;8.548;2023-04-25T04:06:01;9.70;99.90
24638;DHT22;12773;50.162;8.548;2023-04-25T04:08:50;9.80;99.90
24638;DHT22;12773;50.162;8.548;2023-04-25T04:11:38;9.70;99.90
24638;DHT22;12773;50.162;8.548;2023-04-25T04:14:25;9.70;99.90
24638;DHT22;12773;50.162;8.548;2023-04-25T04:17:13;9.80;99.90
24638;DHT22;12773;50.162;8.548;2023-04-25T04:20:01;9.70;99.90
24638;DHT22;12773;50.162;8.548;2023-04-25T04:22:49;9.70;99.90
24638;DHT22;12773;50.162;8.548;2023-04-25T04:25:37;9.60;99.90
24638;DHT22;12773;50.162;8.548;2023-04-25T04:28:25;9.70;99.90
24638;DHT22;12773;50.162;8.548;2023-04-25T04:31:12;9.80;99.90
24638;DHT22;12773;50.162;8.548;2023-04-25T04:34:01;9.90;99.90
24638;DHT22;12773;50.162;8.548;2023-04-25T04:36:49;9.90;99.90
24638;DHT22;12773;50.162;8.548;2023-04-25T04:39:36;9.90;99.90
24638;DHT22;12773;50.162;8.548;2023-04-25T04:42:23;9.90;99.90
24638;DHT22;12773;50.162;8.548;2023-04-25T04:45:11;9.80;99.90
24638;DHT22;12773;50.162;8.548;2023-04-25T04:47:59;9.80;99.90
24638;DHT22;12773;50.162;8.548;2023-04-25T04:50:46;9.90;99.90
24638;DHT22;12773;50.162;8.548;2023-04-25T04:53:34;10.00;99.90
24638;DHT22;12773;50.162;8.548;2023-04-25T04:56:21;9.90;99.90
24638;DHT22;12773;50.162;8.548;2023-04-25T04:59:09;9.80;99.90
24638;DHT22;12773;50.162;8.548;2023-04-25T05:01:56;9.50;99.90
24638;DHT22;12773;50.162;8.548;2023-04-25T05:04:44;9.60;99.90
24638;DHT22;12773;50.162;8.548;2023-04-25T05:07:32;9.70;99.90
24638;DHT22;12773;50.162;8.548;2023-04-25T05:10:19;9.90;99.90
24638;DHT22;12773;50.162;8.548;2023-04-25T05:13:06;10.00;99.90
24638;DHT22;12773;50.162;8.548;2023-04-25T05:15:54;10.20;99.90
24638;DHT22;12773;50.162;8.548;2023-04-25T05:18:42;10.30;99.90
24638;DHT22;12773;50.162;8.548;2023-04-25T05:21:29;10.40;99.90
24638;DHT22;12773;50.162;8.548;2023-04-25T05:24:17;10.40;99.90
24638;DHT22;12773;50.162;8.548;2023-04-25T05:27:04;10.50;99.90
24638;DHT22;12773;50.162;8.548;2023-04-25T05:29:52;10.60;99.90
24638;DHT22;12773;50.162;8.548;2023-04-25T05:32:39;10.60;99.90
24638;DHT22;12773;50.162;8.548;2023-04-25T05:35:27;10.70;99.90
24638;DHT22;12773;50.162;8.548;2023-04-25T05:38:14;10.80;99.90
24638;DHT22;12773;50.162;8.548;2023-04-25T05:41:02;10.80;99.90
24638;DHT22;12773;50.162;8.548;2023-04-25T05:43:49;10.80;99.90
24638;DHT22;12773;50.162;8.548;2023-04-25T05:46:38;10.80;99.90
24638;DHT22;12773;50.162;8.548;2023-04-25T05:49:25;10.90;99.90
24638;DHT22;12773;50.162;8.548;2023-04-25T05:52:13;10.90;99.90
24638;DHT22;12773;50.162;8.548;2023-04-25T05:55:01;10.90;99.90
24638;DHT22;12773;50.162;8.548;2023-04-25T05:57:48;10.90;99.90
24638;DHT22;12773;50.162;8.548;2023-04-25T06:00:36;10.90;99.90
24638;DHT22;12773;50.162;8.548;2023-04-25T06:03:24;10.90;99.90
24638;DHT22;12773;50.162;8.548;2023-04-25T06:06:12;10.90;99.90
24638;DHT22;12773;50.162;8.548;2023-04-25T06:09:02;11.10;99.90
24638;DHT22;12773;50.162;8.548;2023-04-25T06:11:49;11.20;99.90
24638;DHT22;12773;50.162;8.548;2023-04-25T06:14:37;11.30;99.90
24638;DHT22;12773;50.162;8.548;2023-04-25T06:17:24;11.30;99.90
24638;DHT22;12773;50.162;8.548;2023-04-25T06:20:12;11.40;99.90
24638;DHT22;12773;50.162;8.548;2023-04-25T06:22:59;11.30;99.90
24638;DHT22;12773;50.162;8.548;2023-04-25T06:25:46;11.50;99.90
24638;DHT22;12773;50.162;8.548;2023-04-25T06:28:34;11.40;99.90
24638;DHT22;12773;50.162;8.548;2023-04-25T06:31:21;11.40;99.90
24638;DHT22;12773;50.162;8.548;2023-04-25T06:34:09;11.50;99.90
24638;DHT22;12773;50.162;8.548;2023-04-25T06:36:56;11.60;99.90
24638;DHT22;12773;50.162;8.548;2023-04-25T06:39:43;11.80;99.90
24638;DHT22;12773;50.162;8.548;2023-04-25T06:42:31;11.70;99.90
24638;DHT22;12773;50.162;8.548;2023-04-25T06:45:18;11.60;99.90
24638;DHT22;12773;50.162;8.548;2023-04-25T06:48:05;11.70;99.90
24638;DHT22;12773;50.162;8.548;2023-04-25T06:50:53;11.60;99.90
24638;DHT22;12773;50.162;8.548;2023-04-25T06:53:40;11.40;99.90
24638;DHT22;12773;50.162;8.548;2023-04-25T06:56:29;11.30;99.90
24638;DHT22;12773;50.162;8.548;2023-04-25T06:59:16;11.00;99.90
24638;DHT22;12773;50.162;8.548;2023-04-25T07:02:04;10.90;99.90
24638;DHT22;12773;50.162;8.548;2023-04-25T07:04:52;11.00;99.90
24638;DHT22;12773;50.162;8.548;2023-04-25T07:07:40;10.90;99.90
24638;DHT22;12773;50.162;8.548;2023-04-25T07:10:27;11.00;99.90
24638;DHT22;12773;50.162;8.548;2023-04-25T07:13:15;10.90;99.90
24638;DHT22;12773;50.162;8.548;2023-04-25T07:16:03;11.00;99.90
24638;DHT22;12773;50.162;8.548;2023-04-25T07:18:54;11.00;99.90
24638;DHT22;12773;50.162;8.548;2023-04-25T07:21:41;11.10;99.90
24638;DHT22;12773;50.162;8.548;2023-04-25T07:24:29;11.20;99.90
24638;DHT22;12773;50.162;8.548;2023-04-25T07:27:16;11.50;99.90
24638;DHT22;12773;50.162;8.548;2023-04-25T07:30:04;11.80;99.90
24638;DHT22;12773;50.162;8.548;2023-04-25T07:32:51;12.00;99.90
24638;DHT22;12773;50.162;8.548;2023-04-25T07:35:38;12.10;99.90
24638;DHT22;12773;50.162;8.548;2023-04-25T07:38:26;12.30;99.90
24638;DHT22;12773;50.162;8.548;2023-04-25T07:41:13;12.50;99.90
24638;DHT22;12773;50.162;8.548;2023-04-25T07:44:00;12.50;99.90
24638;DHT22;12773;50.162;8.548;2023-04-25T07:46:48;12.60;99.90
24638;DHT22;12773;50.162;8.548;2023-04-25T07:49:35;12.70;99.90
24638;DHT22;12773;50.162;8.548;2023-04-25T07:52:23;12.90;99.90
24638;DHT22;12773;50.162;8.548;2023-04-25T07:55:10;13.10;99.90
24638;DHT22;12773;50.162;8.548;2023-04-25T07:57:57;13.10;99.90
24638;DHT22;12773;50.162;8.548;2023-04-25T08:00:44;12.70;99.90
24638;DHT22;12773;50.162;8.548;2023-04-25T08:03:31;12.60;99.90
24638;DHT22;12773;50.162;8.548;2023-04-25T08:06:20;12.60;99.90
24638;DHT22;12773;50.162;8.548;2023-04-25T08:09:08;12.50;99.90
24638;DHT22;12773;50.162;8.548;2023-04-25T08:11:55;12.30;99.90
24638;DHT22;12773;50.162;8.548;2023-04-25T08:14:43;12.10;99.90
24638;DHT22;12773;50.162;8.548;2023-04-25T08:17:30;12.20;99.90
24638;DHT22;12773;50.162;8.548;2023-04-25T08:20:18;12.30;99.90
24638;DHT22;12773;50.162;8.548;2023-04-25T08:23:05;12.50;99.90
24638;DHT22;12773;50.162;8.548;2023-04-25T08:25:53;12.50;99.90
24638;DHT22;12773;50.162;8.548;2023-04-25T08:28:40;12.40;99.90
24638;DHT22;12773;50.162;8.548;2023-04-25T08:31:27;12.40;99.90
24638;DHT22;12773;50.162;8.548;2023-04-25T08:34:14;12.70;99.90
24638;DHT22;12773;50.162;8.548;2023-04-25T08:37:02;12.80;99.90
24638;DHT22;12773;50.162;8.548;2023-04-25T08:39:50;12.80;99.90
24638;DHT22;12773;50.162;8.548;2023-04-25T08:42:43;12.90;99.90
24638;DHT22;12773;50.162;8.548;2023-04-25T08:45:32;12.90;99.90
24638;DHT22;12773;50.162;8.548;2023-04-25T08:48:28;13.10;99.90
24638;DHT22;12773;50.162;8.548;2023-04-25T08:51:44;13.00;99.90
24638;DHT22;12773;50.162;8.548;2023-04-25T08:54:52;13.10;99.90
24638;DHT22;12773;50.162;8.548;2023-04-25T08:57:49;13.20;99.90
24638;DHT22;12773;50.162;8.548;2023-04-25T09:00:37;13.50;99.90
24638;DHT22;12773;50.162;8.548;2023-04-25T09:03:24;13.80;99.90
24638;DHT22;12773;50.162;8.548;2023-04-25T09:06:12;13.80;99.90
24638;DHT22;12773;50.162;8.548;2023-04-25T09:09:06;14.00;99.90
24638;DHT22;12773;50.162;8.548;2023-04-25T09:11:54;13.90;99.90
24638;DHT22;12773;50.162;8.548;2023-04-25T09:14:42;13.50;99.90
24638;DHT22;12773;50.162;8.548;2023-04-25T09:17:30;13.40;99.90
24638;DHT22;12773;50.162;8.548;2023-04-25T09:20:17;13.80;99.90
24638;DHT22;12773;50.162;8.548;2023-04-25T09:23:05;13.90;99.90
24638;DHT22;12773;50.162;8.548;2023-04-25T09:25:53;13.50;99.90
24638;DHT22;12773;50.162;8.548;2023-04-25T09:28:41;13.40;99.90
24638;DHT22;12773;50.162;8.548;2023-04-25T09:31:33;13.70;99.90
24638;DHT22;12773;50.162;8.548;2023-04-25T09:34:20;13.70;99.90
24638;DHT22;12773;50.162;8.548;2023-04-25T09:37:09;13.90;99.90
24638;DHT22;12773;50.162;8.548;2023-04-25T09:39:59;14.10;99.90
24638;DHT22;12773;50.162;8.548;2023-04-25T09:42:50;14.30;99.90
24638;DHT22;12773;50.162;8.548;2023-04-25T09:45:43;14.20;99.90
24638;DHT22;12773;50.162;8.548;2023-04-25T09:48:32;14.20;99.60
24638;DHT22;12773;50.162;8.548;2023-04-25T09:51:19;14.20;99.90
24638;DHT22;12773;50.162;8.548;2023-04-25T09:54:06;14.30;99.90
24638;DHT22;12773;50.162;8.548;2023-04-25T09:56:54;14.60;99.90
24638;DHT22;12773;50.162;8.548;2023-04-25T09:59:46;14.30;98.30
24638;DHT22;12773;50.162;8.548;2023-04-25T10:02:34;14.10;98.90
24638;DHT22;12773;50.162;8.548;2023-04-25T10:05:23;14.10;99.90
24638;DHT22;12773;50.162;8.548;2023-04-25T10:08:12;14.10;99.20
24638;DHT22;12773;50.162;8.548;2023-04-25T10:11:01;14.10;99.40
24638;DHT22;12773;50.162;8.548;2023-04-25T10:13:49;14.20;99.00
24638;DHT22;12773;50.162;8.548;2023-04-25T10:16:38;14.00;98.80
24638;DHT22;12773;50.162;8.548;2023-04-25T10:19:27;13.70;99.20
24638;DHT22;12773;50.162;8.548;2023-04-25T10:22:18;13.60;99.50
24638;DHT22;12773;50.162;8.548;2023-04-25T10:25:07;13.50;99.70
24638;DHT22;12773;50.162;8.548;2023-04-25T10:27:54;13.50;99.90
24638;DHT22;12773;50.162;8.548;2023-04-25T10:31:02;13.40;99.90
24638;DHT22;12773;50.162;8.548;2023-04-25T10:33:49;13.30;99.90
24638;DHT22;12773;50.162;8.548;2023-04-25T10:36:37;13.10;99.90
24638;DHT22;12773;50.162;8.548;2023-04-25T10:39:26;13.20;99.90
24638;DHT22;12773;50.162;8.548;2023-04-25T10:42:14;13.10;99.90
24638;DHT22;12773;50.162;8.548;2023-04-25T10:45:06;13.10;99.90
24638;DHT22;12773;50.162;8.548;2023-04-25T10:47:54;13.20;99.90
24638;DHT22;12773;50.162;8.548;2023-04-25T10:50:42;13.20;99.90
24638;DHT22;12773;50.162;8.548;2023-04-25T10:53:32;13.20;99.90
24638;DHT22;12773;50.162;8.548;2023-04-25T10:56:20;13.00;99.90
24638;DHT22;12773;50.162;8.548;2023-04-25T10:59:10;12.70;99.90
24638;DHT22;12773;50.162;8.548;2023-04-25T11:01:57;12.50;99.90
24638;DHT22;12773;50.162;8.548;2023-04-25T11:04:44;12.50;99.90
24638;DHT22;12773;50.162;8.548;2023-04-25T11:07:52;12.60;99.90
24638;DHT22;12773;50.162;8.548;2023-04-25T11:10:43;12.60;99.90
24638;DHT22;12773;50.162;8.548;2023-04-25T11:13:31;12.50;99.90
24638;DHT22;12773;50.162;8.548;2023-04-25T11:16:19;12.60;99.90
24638;DHT22;12773;50.162;8.548;2023-04-25T11:19:08;12.80;99.90
24638;DHT22;12773;50.162;8.548;2023-04-25T11:21:56;12.90;99.90
24638;DHT22;12773;50.162;8.548;2023-04-25T11:24:44;12.70;99.90
24638;DHT22;12773;50.162;8.548;2023-04-25T11:27:33;13.00;99.90
24638;DHT22;12773;50.162;8.548;2023-04-25T11:30:22;13.30;99.90
24638;DHT22;12773;50.162;8.548;2023-04-25T11:33:09;13.70;99.90
24638;DHT22;12773;50.162;8.548;2023-04-25T11:35:57;14.20;99.90
24638;DHT22;12773;50.162;8.548;2023-04-25T11:38:44;14.40;97.70
24638;DHT22;12773;50.162;8.548;2023-04-25T11:41:32;14.50;99.00
24638;DHT22;12773;50.162;8.548;2023-04-25T11:44:20;14.90;99.00
24638;DHT22;12773;50.162;8.548;2023-04-25T11:47:09;15.00;95.90
24638;DHT22;12773;50.162;8.548;2023-04-25T11:49:58;14.60;95.70
24638;DHT22;12773;50.162;8.548;2023-04-25T11:52:47;14.20;96.40
24638;DHT22;12773;50.162;8.548;2023-04-25T11:55:35;14.30;96.10
24638;DHT22;12773;50.162;8.548;2023-04-25T11:58:22;14.00;95.90
24638;DHT22;12773;50.162;8.548;2023-04-25T12:01:10;13.70;97.00
24638;DHT22;12773;50.162;8.548;2023-04-25T12:03:58;13.80;97.60
24638;DHT22;12773;50.162;8.548;2023-04-25T12:06:47;13.90;97.00
24638;DHT22;12773;50.162;8.548;2023-04-25T12:09:34;13.70;97.30
24638;DHT22;12773;50.162;8.548;2023-04-25T12:12:21;13.50;98.20
24638;DHT22;12773;50.162;8.548;2023-04-25T12:15:22;13.30;98.50
24638;DHT22;12773;50.162;8.548;2023-04-25T12:18:06;12.80;98.40
24638;DHT22;12773;50.162;8.548;2023-04-25T12:20:54;12.70;99.60
24638;DHT22;12773;50.162;8.548;2023-04-25T12:23:41;12.60;99.90
24638;DHT22;12773;50.162;8.548;2023-04-25T12:26:45;12.60;99.90
24638;DHT22;12773;50.162;8.548;2023-04-25T12:29:23;12.70;99.90
24638;DHT22;12773;50.162;8.548;2023-04-25T12:32:12;12.80;99.90
24638;DHT22;12773;50.162;8.548;2023-04-25T12:34:59;13.00;99.90
24638;DHT22;12773;50.162;8.548;2023-04-25T12:37:47;13.10;99.40
24638;DHT22;12773;50.162;8.548;2023-04-25T12:40:35;13.70;99.70
24638;DHT22;12773;50.162;8.548;2023-04-25T12:43:22;13.80;97.30
24638;DHT22;12773;50.162;8.548;2023-04-25T12:46:09;13.90;97.20
24638;DHT22;12773;50.162;8.548;2023-04-25T12:48:56;14.10;96.90
24638;DHT22;12773;50.162;8.548;2023-04-25T12:51:45;14.20;96.30
24638;DHT22;12773;50.162;8.548;2023-04-25T12:54:32;14.50;97.60
24638;DHT22;12773;50.162;8.548;2023-04-25T12:57:20;14.60;95.70
24638;DHT22;12773;50.162;8.548;2023-04-25T13:00:07;14.90;97.30
24638;DHT22;12773;50.162;8.548;2023-04-25T13:02:56;15.00;95.10
24638;DHT22;12773;50.162;8.548;2023-04-25T13:05:44;15.10;95.50
24638;DHT22;12773;50.162;8.548;2023-04-25T13:08:31;14.90;93.40
24638;DHT22;12773;50.162;8.548;2023-04-25T13:11:19;14.40;93.10
24638;DHT22;12773;50.162;8.548;2023-04-25T13:14:06;14.70;96.50
24638;DHT22;12773;50.162;8.548;2023-04-25T13:16:53;15.00;93.00
24638;DHT22;12773;50.162;8.548;2023-04-25T13:19:41;14.90;92.70
24638;DHT22;12773;50.162;8.548;2023-04-25T13:22:28;15.00;95.40
24638;DHT22;12773;50.162;8.548;2023-04-25T13:25:16;14.80;92.90
24638;DHT22;12773;50.162;8.548;2023-04-25T13:28:03;14.80;94.00
24638;DHT22;12773;50.162;8.548;2023-04-25T13:30:51;14.90;94.00
24638;DHT22;12773;50.162;8.548;2023-04-25T13:33:38;14.80;92.10
24638;DHT22;12773;50.162;8.548;2023-04-25T13:36:25;14.50;93.60
24638;DHT22;12773;50.162;8.548;2023-04-25T13:39:13;14.30;93.10
24638;DHT22;12773;50.162;8.548;2023-04-25T13:42:01;14.30;93.30
24638;DHT22;12773;50.162;8.548;2023-04-25T13:44:49;14.80;93.60
24638;DHT22;12773;50.162;8.548;2023-04-25T13:47:36;14.80;91.00
24638;DHT22;12773;50.162;8.548;2023-04-25T13:50:23;14.70;92.20
24638;DHT22;12773;50.162;8.548;2023-04-25T13:53:11;14.90;91.60
24638;DHT22;12773;50.162;8.548;2023-04-25T13:55:59;15.20;93.00
24638;DHT22;12773;50.162;8.548;2023-04-25T13:58:46;15.10;91.00
24638;DHT22;12773;50.162;8.548;2023-04-25T14:01:33;15.40;93.30
24638;DHT22;12773;50.162;8.548;2023-04-25T14:04:22;16.00;90.40
24638;DHT22;12773;50.162;8.548;2023-04-25T14:07:09;15.80;89.50
24638;DHT22;12773;50.162;8.548;2023-04-25T14:09:57;15.30;87.00
24638;DHT22;12773;50.162;8.548;2023-04-25T14:12:44;15.30;82.40
24638;DHT22;12773;50.162;8.548;2023-04-25T14:15:34;15.30;85.70
24638;DHT22;12773;50.162;8.548;2023-04-25T14:18:21;15.70;85.60
24638;DHT22;12773;50.162;8.548;2023-04-25T14:21:09;15.70;88.00
24638;DHT22;12773;50.162;8.548;2023-04-25T14:23:57;15.30;85.30
24638;DHT22;12773;50.162;8.548;2023-04-25T14:26:45;15.30;86.40
24638;DHT22;12773;50.162;8.548;2023-04-25T14:29:34;15.50;85.00
24638;DHT22;12773;50.162;8.548;2023-04-25T14:32:21;15.00;87.00
24638;DHT22;12773;50.162;8.548;2023-04-25T14:35:09;15.50;90.80
24638;DHT22;12773;50.162;8.548;2023-04-25T14:37:56;15.60;84.90
24638;DHT22;12773;50.162;8.548;2023-04-25T14:40:44;15.80;90.50
24638;DHT22;12773;50.162;8.548;2023-04-25T14:43:31;16.00;85.40
24638;DHT22;12773;50.162;8.548;2023-04-25T14:46:19;16.20;87.60
24638;DHT22;12773;50.162;8.548;2023-04-25T14:49:06;15.70;85.10
24638;DHT22;12773;50.162;8.548;2023-04-25T14:51:54;15.20;86.20
24638;DHT22;12773;50.162;8.548;2023-04-25T14:54:41;14.80;87.10
24638;DHT22;12773;50.162;8.548;2023-04-25T14:57:28;14.70;89.20
24638;DHT22;12773;50.162;8.548;2023-04-25T15:00:16;14.90;90.40
24638;DHT22;12773;50.162;8.548;2023-04-25T15:03:05;15.00;88.60
24638;DHT22;12773;50.162;8.548;2023-04-25T15:05:55;14.90;90.60
24638;DHT22;12773;50.162;8.548;2023-04-25T15:08:42;14.50;90.60
24638;DHT22;12773;50.162;8.548;2023-04-25T15:11:29;14.20;90.60
24638;DHT22;12773;50.162;8.548;2023-04-25T15:14:17;14.20;90.40
24638;DHT22;12773;50.162;8.548;2023-04-25T15:17:05;14.20;91.20
24638;DHT22;12773;50.162;8.548;2023-04-25T15:19:52;14.30;91.20
24638;DHT22;12773;50.162;8.548;2023-04-25T15:22:43;14.50;91.40
24638;DHT22;12773;50.162;8.548;2023-04-25T15:25:32;14.50;90.90
24638;DHT22;12773;50.162;8.548;2023-04-25T15:28:19;14.60;91.60
24638;DHT22;12773;50.162;8.548;2023-04-25T15:31:07;14.80;90.80
24638;DHT22;12773;50.162;8.548;2023-04-25T15:33:55;15.00;91.10
24638;DHT22;12773;50.162;8.548;2023-04-25T15:36:42;14.90;87.90
24638;DHT22;12773;50.162;8.548;2023-04-25T15:39:30;14.70;89.60
24638;DHT22;12773;50.162;8.548;2023-04-25T15:42:18;14.60;85.30
24638;DHT22;12773;50.162;8.548;2023-04-25T15:45:07;14.50;87.80
24638;DHT22;12773;50.162;8.548;2023-04-25T15:47:55;14.60;87.00
24638;DHT22;12773;50.162;8.548;2023-04-25T15:50:43;14.40;82.40
24638;DHT22;12773;50.162;8.548;2023-04-25T15:53:30;14.20;84.90
24638;DHT22;12773;50.162;8.548;2023-04-25T15:56:18;14.10;82.30
24638;DHT22;12773;50.162;8.548;2023-04-25T15:59:05;14.20;79.50
24638;DHT22;12773;50.162;8.548;2023-04-25T16:01:52;14.30;81.70
24638;DHT22;12773;50.162;8.548;2023-04-25T16:04:40;14.30;82.80
24638;DHT22;12773;50.162;8.548;2023-04-25T16:07:28;14.50;80.90
24638;DHT22;12773;50.162;8.548;2023-04-25T16:10:15;14.50;80.60
24638;DHT22;12773;50.162;8.548;2023-04-25T16:13:08;15.00;82.50
24638;DHT22;12773;50.162;8.548;2023-04-25T16:15:55;15.00;79.60
24638;DHT22;12773;50.162;8.548;2023-04-25T16:18:43;15.10;79.00
24638;DHT22;12773;50.162;8.548;2023-04-25T16:21:30;15.20;78.60
24638;DHT22;12773;50.162;8.548;2023-04-25T16:24:18;15.30;82.30
24638;DHT22;12773;50.162;8.548;2023-04-25T16:27:07;15.20;77.70
24638;DHT22;12773;50.162;8.548;2023-04-25T16:29:54;15.00;77.60
24638;DHT22;12773;50.162;8.548;2023-04-25T16:32:42;14.60;80.70
24638;DHT22;12773;50.162;8.548;2023-04-25T16:35:31;14.10;80.40
24638;DHT22;12773;50.162;8.548;2023-04-25T16:38:18;14.00;82.90
24638;DHT22;12773;50.162;8.548;2023-04-25T16:41:07;14.30;84.50
24638;DHT22;12773;50.162;8.548;2023-04-25T16:43:54;14.30;83.60
24638;DHT22;12773;50.162;8.548;2023-04-25T16:46:41;14.10;82.30
24638;DHT22;12773;50.162;8.548;2023-04-25T16:49:28;14.10;84.60
24638;DHT22;12773;50.162;8.548;2023-04-25T16:52:15;13.90;83.10
24638;DHT22;12773;50.162;8.548;2023-04-25T16:55:03;13.70;85.20
24638;DHT22;12773;50.162;8.548;2023-04-25T16:57:52;13.70;84.90
24638;DHT22;12773;50.162;8.548;2023-04-25T17:00:39;13.60;83.60
24638;DHT22;12773;50.162;8.548;2023-04-25T17:03:26;13.60;87.00
24638;DHT22;12773;50.162;8.548;2023-04-25T17:06:14;13.80;87.70
24638;DHT22;12773;50.162;8.548;2023-04-25T17:09:02;13.90;85.80
24638;DHT22;12773;50.162;8.548;2023-04-25T17:11:51;13.70;84.30
24638;DHT22;12773;50.162;8.548;2023-04-25T17:14:38;13.50;83.70
24638;DHT22;12773;50.162;8.548;2023-04-25T17:17:26;13.30;85.50
24638;DHT22;12773;50.162;8.548;2023-04-25T17:20:13;13.20;82.40
24638;DHT22;12773;50.162;8.548;2023-04-25T17:23:00;13.00;85.00
24638;DHT22;12773;50.162;8.548;2023-04-25T17:25:48;13.00;83.90
24638;DHT22;12773;50.162;8.548;2023-04-25T17:28:34;13.00;83.30
24638;DHT22;12773;50.162;8.548;2023-04-25T17:31:22;12.90;84.90
24638;DHT22;12773;50.162;8.548;2023-04-25T17:34:09;12.90;84.10
24638;DHT22;12773;50.162;8.548;2023-04-25T17:36:58;12.90;83.50
24638;DHT22;12773;50.162;8.548;2023-04-25T17:39:46;12.90;85.60
24638;DHT22;12773;50.162;8.548;2023-04-25T17:42:34;12.70;85.50
24638;DHT22;12773;50.162;8.548;2023-04-25T17:45:21;12.70;86.80